sensor_id;sensor_type;location;lat;lon;timestamp;temperature;humidity
29241;DHT22;16268;49.880;8.648;2022-12-18T00:02:12;-6.40;99.90
29241;DHT22;16268;49.880;8.648;2022-12-18T00:04:38;-6.50;99.90
29241;DHT22;16268;49.880;8.648;2022-12-18T00:07:03;-6.50;99.90
29241;DHT22;16268;49.880;8.648;2022-12-18T00:09:29;-6.60;99.90
29241;DHT22;16268;49.880;8.648;2022-12-18T00:11:55;-6.70;99.90
29241;DHT22;16268;49.880;8.648;2022-12-18T00:14:20;-6.70;99.90
29241;DHT22;16268;49.880;8.648;2022-12-18T00:16:46;-6.60;99.90
29241;DHT22;16268;49.880;8.648;2022-12-18T00:19:13;-6.70;99.90
29241;DHT22;16268;49.880;8.648;2022-12-18T00:21:39;-6.70;99.90
29241;DHT22;16268;49.880;8.648;2022-12-18T00:24:04;-6.70;99.90
29241;DHT22;16268;49.880;8.648;2022-12-18T00:26:32;-6.70;99.90
29241;DHT22;16268;49.880;8.648;2022-12-18T00:28:59;-6.60;99.90
29241;DHT22;16268;49.880;8.648;2022-12-18T00:31:26;-6.60;99.90
29241;DHT22;16268;49.880;8.648;2022-12-18T00:33:54;-6.70;99.90
29241;DHT22;16268;49.880;8.648;2022-12-18T00:36:22;-6.70;99.90
29241;DHT22;16268;49.880;8.648;2022-12-18T00:38:48;-6.80;99.90
29241;DHT22;16268;49.880;8.648;2022-12-18T00:41:15;-7.00;99.90
29241;DHT22;16268;49.880;8.648;2022-12-18T00:44:00;-6.90;99.90
29241;DHT22;16268;49.880;8.648;2022-12-18T00:46:26;-6.90;99.90
29241;DHT22;16268;49.880;8.648;2022-12-18T00:48:51;-7.00;99.90
29241;DHT22;16268;49.880;8.648;2022-12-18T00:51:17;-7.00;99.90
29241;DHT22;16268;49.880;8.648;2022-12-18T00:53:42;-7.10;99.90
29241;DHT22;16268;49.880;8.648;2022-12-18T00:56:08;-7.00;99.90
29241;DHT22;16268;49.880;8.648;2022-12-18T00:58:33;-7.00;99.90
29241;DHT22;16268;49.880;8.648;2022-12-18T01:00:59;-7.00;99.90
29241;DHT22;16268;49.880;8.648;2022-12-18T01:03:24;-7.00;99.90
29241;DHT22;16268;49.880;8.648;2022-12-18T01:05:50;-6.90;99.90
29241;DHT22;16268;49.880;8.648;2022-12-18T01:08:15;-6.90;99.90
29241;DHT22;16268;49.880;8.648;2022-12-18T01:10:41;-6.80;99.90
29241;DHT22;16268;49.880;8.648;2022-12-18T01:13:07;-6.90;99.90
29241;DHT22;16268;49.880;8.648;2022-12-18T01:15:32;-6.80;99.90
29241;DHT22;16268;49.880;8.648;2022-12-18T01:17:58;-6.90;99.90
29241;DHT22;16268;49.880;8.648;2022-12-18T01:20:23;-6.90;99.90
29241;DHT22;16268;49.880;8.648;2022-12-18T01:22:49;-6.80;99.90
29241;DHT22;16268;49.880;8.648;2022-12-18T01:25:14;-6.80;99.90
29241;DHT22;16268;49.880;8.648;2022-12-18T01:27:40;-6.90;99.90
29241;DHT22;16268;49.880;8.648;2022-12-18T01:30:06;-6.90;99.90
29241;DHT22;16268;49.880;8.648;2022-12-18T01:32:32;-6.90;99.90
29241;DHT22;16268;49.880;8.648;2022-12-18T01:34:57;-7.00;99.90
29241;DHT22;16268;49.880;8.648;2022-12-18T01:37:23;-7.00;99.90
29241;DHT22;16268;49.880;8.648;2022-12-18T01:39:48;-7.00;99.90
29241;DHT22;16268;49.880;8.648;2022-12-18T01:42:15;-7.00;99.90
29241;DHT22;16268;49.880;8.648;2022-12-18T01:50:40;-7.10;99.90
29241;DHT22;16268;49.880;8.648;2022-12-18T01:53:11;-7.20;99.90
29241;DHT22;16268;49.880;8.648;2022-12-18T01:55:41;-7.20;99.90
29241;DHT22;16268;49.880;8.648;2022-12-18T01:58:07;-7.20;99.90
29241;DHT22;16268;49.880;8.648;2022-12-18T02:00:33;-7.30;99.90
29241;DHT22;16268;49.880;8.648;2022-12-18T02:02:59;-7.30;99.90
29241;DHT22;16268;49.880;8.648;2022-12-18T02:05:44;-7.40;99.90
29241;DHT22;16268;49.880;8.648;2022-12-18T02:08:21;-7.40;99.90
29241;DHT22;16268;49.880;8.648;2022-12-18T02:11:15;-7.40;99.90
29241;DHT22;16268;49.880;8.648;2022-12-18T02:19:20;-7.50;99.90
29241;DHT22;16268;49.880;8.648;2022-12-18T02:21:51;-7.40;99.90
29241;DHT22;16268;49.880;8.648;2022-12-18T02:24:43;-7.40;99.90
29241;DHT22;16268;49.880;8.648;2022-12-18T02:27:11;-7.40;99.90
29241;DHT22;16268;49.880;8.648;2022-12-18T02:32:15;-7.30;99.90
29241;DHT22;16268;49.880;8.648;2022-12-18T02:34:43;-7.30;99.90
29241;DHT22;16268;49.880;8.648;2022-12-18T02:37:12;-7.20;99.90
29241;DHT22;16268;49.880;8.648;2022-12-18T02:39:41;-7.10;99.90
29241;DHT22;16268;49.880;8.648;2022-12-18T02:42:08;-7.10;99.90
29241;DHT22;16268;49.880;8.648;2022-12-18T02:44:35;-7.00;99.90
29241;DHT22;16268;49.880;8.648;2022-12-18T02:47:10;-7.00;99.90
29241;DHT22;16268;49.880;8.648;2022-12-18T03:00:59;-6.90;99.90
29241;DHT22;16268;49.880;8.648;2022-12-18T03:03:31;-7.00;99.90
29241;DHT22;16268;49.880;8.648;2022-12-18T03:06:10;-7.00;99.90
29241;DHT22;16268;49.880;8.648;2022-12-18T03:08:39;-7.00;99.90
29241;DHT22;16268;49.880;8.648;2022-12-18T03:11:08;-7.10;99.90
29241;DHT22;16268;49.880;8.648;2022-12-18T03:16:06;-7.20;99.90
29241;DHT22;16268;49.880;8.648;2022-12-18T03:18:37;-7.30;99.90
29241;DHT22;16268;49.880;8.648;2022-12-18T03:21:05;-7.30;99.90
29241;DHT22;16268;49.880;8.648;2022-12-18T03:23:42;-7.40;99.90
29241;DHT22;16268;49.880;8.648;2022-12-18T03:26:12;-7.40;99.90
29241;DHT22;16268;49.880;8.648;2022-12-18T03:28:43;-7.40;99.90
29241;DHT22;16268;49.880;8.648;2022-12-18T03:31:12;-7.50;99.90
29241;DHT22;16268;49.880;8.648;2022-12-18T03:33:56;-7.50;99.90
29241;DHT22;16268;49.880;8.648;2022-12-18T03:36:23;-7.50;99.90
29241;DHT22;16268;49.880;8.648;2022-12-18T03:38:49;-7.50;99.90
29241;DHT22;16268;49.880;8.648;2022-12-18T03:41:33;-7.50;99.90
29241;DHT22;16268;49.880;8.648;2022-12-18T03:44:13;-7.50;99.90
29241;DHT22;16268;49.880;8.648;2022-12-18T03:47:05;-7.50;99.90
29241;DHT22;16268;49.880;8.648;2022-12-18T03:49:41;-7.60;99.90
29241;DHT22;16268;49.880;8.648;2022-12-18T03:52:18;-7.50;99.90
29241;DHT22;16268;49.880;8.648;2022-12-18T03:54:45;-7.60;99.90
29241;DHT22;16268;49.880;8.648;2022-12-18T03:57:22;-7.60;99.90
29241;DHT22;16268;49.880;8.648;2022-12-18T03:59:53;-7.60;99.90
29241;DHT22;16268;49.880;8.648;2022-12-18T04:02:22;-7.60;99.90
29241;DHT22;16268;49.880;8.648;2022-12-18T04:04:53;-7.60;99.90
29241;DHT22;16268;49.880;8.648;2022-12-18T04:07:22;-7.60;99.90
29241;DHT22;16268;49.880;8.648;2022-12-18T04:09:49;-7.60;99.90
29241;DHT22;16268;49.880;8.648;2022-12-18T04:12:17;-7.60;99.90
29241;DHT22;16268;49.880;8.648;2022-12-18T04:14:42;-7.60;99.90
29241;DHT22;16268;49.880;8.648;2022-12-18T04:17:08;-7.60;99.90
29241;DHT22;16268;49.880;8.648;2022-12-18T04:19:33;-7.60;99.90
29241;DHT22;16268;49.880;8.648;2022-12-18T04:21:59;-7.60;99.90
29241;DHT22;16268;49.880;8.648;2022-12-18T04:24:24;-7.60;99.90
29241;DHT22;16268;49.880;8.648;2022-12-18T04:26:50;-7.70;99.90
29241;DHT22;16268;49.880;8.648;2022-12-18T04:29:16;-7.70;99.90
29241;DHT22;16268;49.880;8.648;2022-12-18T04:31:41;-7.70;99.90
29241;DHT22;16268;49.880;8.648;2022-12-18T04:34:07;-7.70;99.90
29241;DHT22;16268;49.880;8.648;2022-12-18T04:36:32;-7.70;99.90
29241;DHT22;16268;49.880;8.648;2022-12-18T04:38:58;-7.70;99.90
29241;DHT22;16268;49.880;8.648;2022-12-18T04:41:23;-7.70;99.90
29241;DHT22;16268;49.880;8.648;2022-12-18T04:43:49;-7.70;99.90
29241;DHT22;16268;49.880;8.648;2022-12-18T04:46:14;-7.60;99.90
29241;DHT22;16268;49.880;8.648;2022-12-18T04:48:40;-7.60;99.90
29241;DHT22;16268;49.880;8.648;2022-12-18T04:51:06;-7.60;99.90
29241;DHT22;16268;49.880;8.648;2022-12-18T04:53:32;-7.70;99.90
29241;DHT22;16268;49.880;8.648;2022-12-18T04:58:30;-7.70;99.90
29241;DHT22;16268;49.880;8.648;2022-12-18T05:00:56;-7.80;99.90
29241;DHT22;16268;49.880;8.648;2022-12-18T05:03:21;-7.70;99.90
29241;DHT22;16268;49.880;8.648;2022-12-18T05:05:50;-7.70;99.90
29241;DHT22;16268;49.880;8.648;2022-12-18T05:08:16;-7.70;99.90
29241;DHT22;16268;49.880;8.648;2022-12-18T05:10:42;-7.70;99.90
29241;DHT22;16268;49.880;8.648;2022-12-18T05:13:08;-7.70;99.90
29241;DHT22;16268;49.880;8.648;2022-12-18T05:15:34;-7.60;99.90
29241;DHT22;16268;49.880;8.648;2022-12-18T05:18:00;-7.60;99.90
29241;DHT22;16268;49.880;8.648;2022-12-18T05:20:26;-7.60;99.90
29241;DHT22;16268;49.880;8.648;2022-12-18T05:22:52;-7.60;99.90
29241;DHT22;16268;49.880;8.648;2022-12-18T05:25:18;-7.60;99.90
29241;DHT22;16268;49.880;8.648;2022-12-18T05:27:44;-7.60;99.90
29241;DHT22;16268;49.880;8.648;2022-12-18T05:30:10;-7.60;99.90
29241;DHT22;16268;49.880;8.648;2022-12-18T05:32:36;-7.60;99.90
29241;DHT22;16268;49.880;8.648;2022-12-18T05:35:02;-7.60;99.90
29241;DHT22;16268;49.880;8.648;2022-12-18T05:37:28;-7.70;99.90
29241;DHT22;16268;49.880;8.648;2022-12-18T05:39:54;-7.60;99.90
29241;DHT22;16268;49.880;8.648;2022-12-18T05:42:19;-7.60;99.90
29241;DHT22;16268;49.880;8.648;2022-12-18T05:44:45;-7.60;99.90
29241;DHT22;16268;49.880;8.648;2022-12-18T05:47:10;-7.50;99.90
29241;DHT22;16268;49.880;8.648;2022-12-18T05:49:36;-7.50;99.90
29241;DHT22;16268;49.880;8.648;2022-12-18T05:52:01;-7.40;99.90
29241;DHT22;16268;49.880;8.648;2022-12-18T05:54:28;-7.30;99.90
29241;DHT22;16268;49.880;8.648;2022-12-18T05:56:53;-7.30;99.90
29241;DHT22;16268;49.880;8.648;2022-12-18T05:59:19;-7.20;99.90
29241;DHT22;16268;49.880;8.648;2022-12-18T06:01:45;-7.10;99.90
29241;DHT22;16268;49.880;8.648;2022-12-18T06:04:11;-7.10;99.90
29241;DHT22;16268;49.880;8.648;2022-12-18T06:06:37;-7.10;99.90
29241;DHT22;16268;49.880;8.648;2022-12-18T06:09:03;-7.20;99.90
29241;DHT22;16268;49.880;8.648;2022-12-18T06:11:34;-7.20;99.90
29241;DHT22;16268;49.880;8.648;2022-12-18T06:14:00;-7.20;99.90
29241;DHT22;16268;49.880;8.648;2022-12-18T06:16:27;-7.20;99.90
29241;DHT22;16268;49.880;8.648;2022-12-18T06:18:55;-7.20;99.90
29241;DHT22;16268;49.880;8.648;2022-12-18T06:21:21;-7.20;99.90
29241;DHT22;16268;49.880;8.648;2022-12-18T06:23:46;-7.10;99.90
29241;DHT22;16268;49.880;8.648;2022-12-18T06:26:12;-7.00;99.90
29241;DHT22;16268;49.880;8.648;2022-12-18T06:28:38;-7.10;99.90
29241;DHT22;16268;49.880;8.648;2022-12-18T06:31:05;-7.10;99.90
29241;DHT22;16268;49.880;8.648;2022-12-18T06:33:31;-7.10;99.90
29241;DHT22;16268;49.880;8.648;2022-12-18T06:36:06;-7.10;99.90
29241;DHT22;16268;49.880;8.648;2022-12-18T06:38:33;-7.10;99.90
29241;DHT22;16268;49.880;8.648;2022-12-18T06:40:59;-7.10;99.90
29241;DHT22;16268;49.880;8.648;2022-12-18T06:43:24;-7.10;99.90
29241;DHT22;16268;49.880;8.648;2022-12-18T06:45:50;-7.00;99.90
29241;DHT22;16268;49.880;8.648;2022-12-18T06:48:20;-6.90;99.90
29241;DHT22;16268;49.880;8.648;2022-12-18T06:50:46;-6.80;99.90
29241;DHT22;16268;49.880;8.648;2022-12-18T06:53:12;-6.80;99.90
29241;DHT22;16268;49.880;8.648;2022-12-18T06:55:38;-6.70;99.90
29241;DHT22;16268;49.880;8.648;2022-12-18T06:58:03;-6.70;99.90
29241;DHT22;16268;49.880;8.648;2022-12-18T07:00:29;-6.70;99.90
29241;DHT22;16268;49.880;8.648;2022-12-18T07:02:54;-6.70;99.90
29241;DHT22;16268;49.880;8.648;2022-12-18T07:05:20;-6.70;99.90
29241;DHT22;16268;49.880;8.648;2022-12-18T07:07:45;-6.70;99.90
29241;DHT22;16268;49.880;8.648;2022-12-18T07:10:11;-6.60;99.90
29241;DHT22;16268;49.880;8.648;2022-12-18T07:12:37;-6.60;99.90
29241;DHT22;16268;49.880;8.648;2022-12-18T07:15:03;-6.60;99.90
29241;DHT22;16268;49.880;8.648;2022-12-18T07:17:28;-6.50;99.90
29241;DHT22;16268;49.880;8.648;2022-12-18T07:19:54;-6.50;99.90
29241;DHT22;16268;49.880;8.648;2022-12-18T07:22:20;-6.50;99.90
29241;DHT22;16268;49.880;8.648;2022-12-18T07:24:46;-6.50;99.90
29241;DHT22;16268;49.880;8.648;2022-12-18T07:27:11;-6.40;99.90
29241;DHT22;16268;49.880;8.648;2022-12-18T07:29:37;-6.40;99.90
29241;DHT22;16268;49.880;8.648;2022-12-18T07:32:02;-6.40;99.90
29241;DHT22;16268;49.880;8.648;2022-12-18T07:34:28;-6.40;99.90
29241;DHT22;16268;49.880;8.648;2022-12-18T07:36:54;-6.40;99.90
29241;DHT22;16268;49.880;8.648;2022-12-18T07:39:19;-6.40;99.90
29241;DHT22;16268;49.880;8.648;2022-12-18T07:41:45;-6.40;99.90
29241;DHT22;16268;49.880;8.648;2022-12-18T07:44:33;-6.50;99.90
29241;DHT22;16268;49.880;8.648;2022-12-18T07:46:59;-6.60;99.90
29241;DHT22;16268;49.880;8.648;2022-12-18T07:49:24;-6.60;99.90
29241;DHT22;16268;49.880;8.648;2022-12-18T07:51:50;-6.60;99.90
29241;DHT22;16268;49.880;8.648;2022-12-18T07:54:16;-6.70;99.90
29241;DHT22;16268;49.880;8.648;2022-12-18T07:56:41;-6.60;99.90
29241;DHT22;16268;49.880;8.648;2022-12-18T07:59:07;-6.50;99.90
29241;DHT22;16268;49.880;8.648;2022-12-18T08:01:33;-6.40;99.90
29241;DHT22;16268;49.880;8.648;2022-12-18T08:03:59;-6.40;99.90
29241;DHT22;16268;49.880;8.648;2022-12-18T08:06:25;-6.30;99.90
29241;DHT22;16268;49.880;8.648;2022-12-18T08:08:54;-6.30;99.90
29241;DHT22;16268;49.880;8.648;2022-12-18T08:11:22;-6.30;99.90
29241;DHT22;16268;49.880;8.648;2022-12-18T08:13:47;-6.20;99.90
29241;DHT22;16268;49.880;8.648;2022-12-18T08:16:13;-6.20;99.90
29241;DHT22;16268;49.880;8.648;2022-12-18T08:18:38;-6.30;99.90
29241;DHT22;16268;49.880;8.648;2022-12-18T08:21:11;-6.30;99.90
29241;DHT22;16268;49.880;8.648;2022-12-18T08:23:37;-6.40;99.90
29241;DHT22;16268;49.880;8.648;2022-12-18T08:26:03;-6.30;99.90
29241;DHT22;16268;49.880;8.648;2022-12-18T08:28:29;-6.30;99.90
29241;DHT22;16268;49.880;8.648;2022-12-18T08:30:54;-6.30;99.90
29241;DHT22;16268;49.880;8.648;2022-12-18T08:33:20;-6.20;99.90
29241;DHT22;16268;49.880;8.648;2022-12-18T08:35:45;-6.20;99.90
29241;DHT22;16268;49.880;8.648;2022-12-18T08:38:11;-6.10;99.90
29241;DHT22;16268;49.880;8.648;2022-12-18T08:40:36;-6.10;99.90
29241;DHT22;16268;49.880;8.648;2022-12-18T08:43:02;-6.00;99.90
29241;DHT22;16268;49.880;8.648;2022-12-18T08:45:46;-6.00;99.90
29241;DHT22;16268;49.880;8.648;2022-12-18T08:48:12;-5.90;99.90
29241;DHT22;16268;49.880;8.648;2022-12-18T08:50:37;-5.90;99.90
29241;DHT22;16268;49.880;8.648;2022-12-18T08:53:03;-5.80;99.90
29241;DHT22;16268;49.880;8.648;2022-12-18T08:55:29;-5.80;99.90
29241;DHT22;16268;49.880;8.648;2022-12-18T08:57:54;-5.70;99.90
29241;DHT22;16268;49.880;8.648;2022-12-18T09:00:20;-5.70;99.90
29241;DHT22;16268;49.880;8.648;2022-12-18T09:02:46;-5.70;99.90
29241;DHT22;16268;49.880;8.648;2022-12-18T09:05:11;-5.70;99.90
29241;DHT22;16268;49.880;8.648;2022-12-18T09:07:37;-5.60;99.90
29241;DHT22;16268;49.880;8.648;2022-12-18T09:10:03;-5.50;99.90
29241;DHT22;16268;49.880;8.648;2022-12-18T09:12:29;-5.40;99.90
29241;DHT22;16268;49.880;8.648;2022-12-18T09:14:54;-5.30;99.90
29241;DHT22;16268;49.880;8.648;2022-12-18T09:17:21;-5.20;99.90
29241;DHT22;16268;49.880;8.648;2022-12-18T09:19:47;-5.10;99.90
29241;DHT22;16268;49.880;8.648;2022-12-18T09:22:13;-5.00;99.90
29241;DHT22;16268;49.880;8.648;2022-12-18T09:24:38;-4.80;99.90
29241;DHT22;16268;49.880;8.648;2022-12-18T09:27:04;-4.50;99.90
29241;DHT22;16268;49.880;8.648;2022-12-18T09:29:29;-4.10;99.90
29241;DHT22;16268;49.880;8.648;2022-12-18T09:31:55;-3.90;99.90
29241;DHT22;16268;49.880;8.648;2022-12-18T09:34:20;-3.40;99.90
29241;DHT22;16268;49.880;8.648;2022-12-18T09:36:47;-3.10;99.90
29241;DHT22;16268;49.880;8.648;2022-12-18T09:39:13;-2.80;99.90
29241;DHT22;16268;49.880;8.648;2022-12-18T09:41:46;-2.60;99.90
29241;DHT22;16268;49.880;8.648;2022-12-18T09:44:23;-2.50;99.90
29241;DHT22;16268;49.880;8.648;2022-12-18T09:46:59;-2.40;99.90
29241;DHT22;16268;49.880;8.648;2022-12-18T09:49:30;-2.30;99.90
29241;DHT22;16268;49.880;8.648;2022-12-18T09:52:31;-2.60;99.90
29241;DHT22;16268;49.880;8.648;2022-12-18T09:55:05;-3.00;99.90
29241;DHT22;16268;49.880;8.648;2022-12-18T09:57:39;-3.30;99.90
29241;DHT22;16268;49.880;8.648;2022-12-18T10:00:19;-3.40;99.90
29241;DHT22;16268;49.880;8.648;2022-12-18T10:02:46;-3.40;99.90
29241;DHT22;16268;49.880;8.648;2022-12-18T10:05:17;-3.30;99.90
29241;DHT22;16268;49.880;8.648;2022-12-18T10:10:47;-3.40;99.90
29241;DHT22;16268;49.880;8.648;2022-12-18T10:13:29;-3.40;99.90
29241;DHT22;16268;49.880;8.648;2022-12-18T10:16:03;-3.20;99.90
29241;DHT22;16268;49.880;8.648;2022-12-18T10:19:16;-3.10;99.90
29241;DHT22;16268;49.880;8.648;2022-12-18T10:22:02;-2.80;99.90
29241;DHT22;16268;49.880;8.648;2022-12-18T10:24:45;-2.70;99.90
29241;DHT22;16268;49.880;8.648;2022-12-18T10:27:18;-2.60;99.90
29241;DHT22;16268;49.880;8.648;2022-12-18T10:29:46;-2.40;99.90
29241;DHT22;16268;49.880;8.648;2022-12-18T10:32:18;-2.40;99.90
29241;DHT22;16268;49.880;8.648;2022-12-18T10:34:46;-2.40;99.90
29241;DHT22;16268;49.880;8.648;2022-12-18T10:37:17;-2.70;99.90
29241;DHT22;16268;49.880;8.648;2022-12-18T10:39:43;-3.00;99.90
29241;DHT22;16268;49.880;8.648;2022-12-18T10:42:17;-3.30;99.90
29241;DHT22;16268;49.880;8.648;2022-12-18T10:44:43;-3.50;99.90
29241;DHT22;16268;49.880;8.648;2022-12-18T10:47:14;-3.70;99.90
29241;DHT22;16268;49.880;8.648;2022-12-18T10:49:52;-3.90;99.90
29241;DHT22;16268;49.880;8.648;2022-12-18T10:52:23;-3.90;99.90
29241;DHT22;16268;49.880;8.648;2022-12-18T10:54:54;-3.80;99.90
29241;DHT22;16268;49.880;8.648;2022-12-18T10:59:57;-3.50;99.90
29241;DHT22;16268;49.880;8.648;2022-12-18T11:02:35;-3.40;99.90
29241;DHT22;16268;49.880;8.648;2022-12-18T11:05:02;-3.30;99.90
29241;DHT22;16268;49.880;8.648;2022-12-18T11:07:50;-3.30;99.90
29241;DHT22;16268;49.880;8.648;2022-12-18T11:10:21;-3.30;99.90
29241;DHT22;16268;49.880;8.648;2022-12-18T11:12:47;-3.50;99.90
29241;DHT22;16268;49.880;8.648;2022-12-18T11:15:20;-3.50;99.90
29241;DHT22;16268;49.880;8.648;2022-12-18T11:17:48;-3.60;99.90
29241;DHT22;16268;49.880;8.648;2022-12-18T11:23:04;-3.40;99.90
29241;DHT22;16268;49.880;8.648;2022-12-18T11:25:32;-3.30;99.90
29241;DHT22;16268;49.880;8.648;2022-12-18T11:28:04;-3.30;99.90
29241;DHT22;16268;49.880;8.648;2022-12-18T11:30:32;-3.30;99.90
29241;DHT22;16268;49.880;8.648;2022-12-18T11:33:13;-3.10;99.90
29241;DHT22;16268;49.880;8.648;2022-12-18T11:40:45;-3.40;99.90
29241;DHT22;16268;49.880;8.648;2022-12-18T11:43:18;-3.40;99.90
29241;DHT22;16268;49.880;8.648;2022-12-18T11:45:54;-3.40;99.90
29241;DHT22;16268;49.880;8.648;2022-12-18T11:48:25;-3.40;99.90
29241;DHT22;16268;49.880;8.648;2022-12-18T11:50:57;-3.40;99.90
29241;DHT22;16268;49.880;8.648;2022-12-18T11:53:25;-3.40;99.90
29241;DHT22;16268;49.880;8.648;2022-12-18T11:56:04;-3.30;99.90
29241;DHT22;16268;49.880;8.648;2022-12-18T11:58:47;-3.30;99.90
29241;DHT22;16268;49.880;8.648;2022-12-18T12:04:27;-3.10;99.90
29241;DHT22;16268;49.880;8.648;2022-12-18T12:10:14;-2.70;99.90
29241;DHT22;16268;49.880;8.648;2022-12-18T12:15:55;-2.60;99.90
29241;DHT22;16268;49.880;8.648;2022-12-18T12:18:40;-2.70;99.90
29241;DHT22;16268;49.880;8.648;2022-12-18T12:40:06;-2.90;99.90
29241;DHT22;16268;49.880;8.648;2022-12-18T12:42:38;-2.70;99.90
29241;DHT22;16268;49.880;8.648;2022-12-18T12:45:37;-2.70;99.90
29241;DHT22;16268;49.880;8.648;2022-12-18T12:48:06;-2.50;99.90
29241;DHT22;16268;49.880;8.648;2022-12-18T12:50:35;-2.60;99.90
29241;DHT22;16268;49.880;8.648;2022-12-18T12:53:06;-2.70;99.90
29241;DHT22;16268;49.880;8.648;2022-12-18T12:55:33;-2.60;99.90
29241;DHT22;16268;49.880;8.648;2022-12-18T12:58:18;-2.70;99.90
29241;DHT22;16268;49.880;8.648;2022-12-18T13:07:37;-2.80;99.90
29241;DHT22;16268;49.880;8.648;2022-12-18T13:15:38;-2.70;99.90
29241;DHT22;16268;49.880;8.648;2022-12-18T13:20:35;-2.70;99.90
29241;DHT22;16268;49.880;8.648;2022-12-18T13:26:00;-2.50;99.90
29241;DHT22;16268;49.880;8.648;2022-12-18T13:31:13;-2.50;99.90
29241;DHT22;16268;49.880;8.648;2022-12-18T13:33:42;-2.50;99.90
29241;DHT22;16268;49.880;8.648;2022-12-18T13:36:27;-2.40;99.90
29241;DHT22;16268;49.880;8.648;2022-12-18T13:41:45;-2.40;99.90
29241;DHT22;16268;49.880;8.648;2022-12-18T13:44:12;-2.30;99.90
29241;DHT22;16268;49.880;8.648;2022-12-18T13:46:46;-2.20;99.90
29241;DHT22;16268;49.880;8.648;2022-12-18T13:51:41;-2.30;99.90
29241;DHT22;16268;49.880;8.648;2022-12-18T13:54:35;-2.40;99.90
29241;DHT22;16268;49.880;8.648;2022-12-18T13:57:02;-2.30;99.90
29241;DHT22;16268;49.880;8.648;2022-12-18T13:59:35;-2.40;99.90
29241;DHT22;16268;49.880;8.648;2022-12-18T14:02:13;-2.40;99.90
29241;DHT22;16268;49.880;8.648;2022-12-18T14:04:39;-2.40;99.90
29241;DHT22;16268;49.880;8.648;2022-12-18T14:07:07;-2.40;99.90
29241;DHT22;16268;49.880;8.648;2022-12-18T14:09:40;-2.40;99.90
29241;DHT22;16268;49.880;8.648;2022-12-18T14:12:11;-2.40;99.90
29241;DHT22;16268;49.880;8.648;2022-12-18T14:14:56;-2.40;99.90
29241;DHT22;16268;49.880;8.648;2022-12-18T14:17:25;-2.40;99.90
29241;DHT22;16268;49.880;8.648;2022-12-18T14:19:51;-2.30;99.90
29241;DHT22;16268;49.880;8.648;2022-12-18T14:22:21;-2.40;99.90
29241;DHT22;16268;49.880;8.648;2022-12-18T14:24:47;-2.40;99.90
29241;DHT22;16268;49.880;8.648;2022-12-18T14:27:29;-2.40;99.90
29241;DHT22;16268;49.880;8.648;2022-12-18T14:29:55;-2.40;99.90
29241;DHT22;16268;49.880;8.648;2022-12-18T14:32:20;-2.40;99.90
29241;DHT22;16268;49.880;8.648;2022-12-18T14:34:53;-2.40;99.90
29241;DHT22;16268;49.880;8.648;2022-12-18T14:37:26;-2.40;99.90
29241;DHT22;16268;49.880;8.648;2022-12-18T14:40:02;-2.30;99.90
29241;DHT22;16268;49.880;8.648;2022-12-18T14:42:28;-2.30;99.90
29241;DHT22;16268;49.880;8.648;2022-12-18T14:45:33;-2.30;99.90
29241;DHT22;16268;49.880;8.648;2022-12-18T14:48:00;-2.30;99.90
29241;DHT22;16268;49.880;8.648;2022-12-18T14:50:26;-2.30;99.90
29241;DHT22;16268;49.880;8.648;2022-12-18T14:52:52;-2.30;99.90
29241;DHT22;16268;49.880;8.648;2022-12-18T14:55:19;-2.30;99.90
29241;DHT22;16268;49.880;8.648;2022-12-18T14:57:46;-2.30;99.90
29241;DHT22;16268;49.880;8.648;2022-12-18T15:00:17;-2.30;99.90
29241;DHT22;16268;49.880;8.648;2022-12-18T15:02:46;-2.40;99.90
29241;DHT22;16268;49.880;8.648;2022-12-18T15:07:47;-2.40;99.90
29241;DHT22;16268;49.880;8.648;2022-12-18T15:10:25;-2.40;99.90
29241;DHT22;16268;49.880;8.648;2022-12-18T15:18:04;-2.40;99.90
29241;DHT22;16268;49.880;8.648;2022-12-18T15:20:33;-2.40;99.90
29241;DHT22;16268;49.880;8.648;2022-12-18T15:23:04;-2.40;99.90
29241;DHT22;16268;49.880;8.648;2022-12-18T15:25:36;-2.40;99.90
29241;DHT22;16268;49.880;8.648;2022-12-18T15:28:03;-2.40;99.90
29241;DHT22;16268;49.880;8.648;2022-12-18T15:30:29;-2.40;99.90
29241;DHT22;16268;49.880;8.648;2022-12-18T15:33:34;-2.40;99.90
29241;DHT22;16268;49.880;8.648;2022-12-18T15:36:07;-2.30;99.90
29241;DHT22;16268;49.880;8.648;2022-12-18T15:38:33;-2.40;99.90
29241;DHT22;16268;49.880;8.648;2022-12-18T15:40:59;-2.40;99.90
29241;DHT22;16268;49.880;8.648;2022-12-18T15:43:26;-2.40;99.90
29241;DHT22;16268;49.880;8.648;2022-12-18T15:46:01;-2.40;99.90
29241;DHT22;16268;49.880;8.648;2022-12-18T15:48:27;-2.40;99.90
29241;DHT22;16268;49.880;8.648;2022-12-18T15:50:55;-2.50;99.90
29241;DHT22;16268;49.880;8.648;2022-12-18T15:53:23;-2.50;99.90
29241;DHT22;16268;49.880;8.648;2022-12-18T15:55:49;-2.50;99.90
29241;DHT22;16268;49.880;8.648;2022-12-18T15:58:34;-2.50;99.90
29241;DHT22;16268;49.880;8.648;2022-12-18T16:01:00;-2.40;99.90
29241;DHT22;16268;49.880;8.648;2022-12-18T16:03:26;-2.50;99.90
29241;DHT22;16268;49.880;8.648;2022-12-18T16:05:51;-2.40;99.90
29241;DHT22;16268;49.880;8.648;2022-12-18T16:08:17;-2.40;99.90
29241;DHT22;16268;49.880;8.648;2022-12-18T16:10:43;-2.40;99.90
29241;DHT22;16268;49.880;8.648;2022-12-18T16:13:12;-2.40;99.90
29241;DHT22;16268;49.880;8.648;2022-12-18T16:15:41;-2.40;99.90
29241;DHT22;16268;49.880;8.648;2022-12-18T16:18:07;-2.30;99.90
29241;DHT22;16268;49.880;8.648;2022-12-18T16:20:32;-2.30;99.90
29241;DHT22;16268;49.880;8.648;2022-12-18T16:22:58;-2.30;99.90
29241;DHT22;16268;49.880;8.648;2022-12-18T16:25:26;-2.30;99.90
29241;DHT22;16268;49.880;8.648;2022-12-18T16:27:52;-2.30;99.90
29241;DHT22;16268;49.880;8.648;2022-12-18T16:30:22;-2.30;99.90
29241;DHT22;16268;49.880;8.648;2022-12-18T16:32:53;-2.30;99.90
29241;DHT22;16268;49.880;8.648;2022-12-18T16:35:19;-2.20;99.90
29241;DHT22;16268;49.880;8.648;2022-12-18T16:37:44;-2.30;99.90
29241;DHT22;16268;49.880;8.648;2022-12-18T16:40:12;-2.20;99.90
29241;DHT22;16268;49.880;8.648;2022-12-18T16:42:40;-2.20;99.90
29241;DHT22;16268;49.880;8.648;2022-12-18T16:45:07;-2.20;99.90
29241;DHT22;16268;49.880;8.648;2022-12-18T16:47:34;-2.20;99.90
29241;DHT22;16268;49.880;8.648;2022-12-18T16:49:59;-2.10;99.90
29241;DHT22;16268;49.880;8.648;2022-12-18T16:52:25;-2.10;99.90
29241;DHT22;16268;49.880;8.648;2022-12-18T16:54:51;-2.10;99.90
29241;DHT22;16268;49.880;8.648;2022-12-18T16:57:18;-2.10;99.90
29241;DHT22;16268;49.880;8.648;2022-12-18T16:59:45;-2.00;99.90
29241;DHT22;16268;49.880;8.648;2022-12-18T17:02:19;-2.00;99.90
29241;DHT22;16268;49.880;8.648;2022-12-18T17:04:45;-1.90;99.90
29241;DHT22;16268;49.880;8.648;2022-12-18T17:07:11;-1.90;99.90
29241;DHT22;16268;49.880;8.648;2022-12-18T17:09:37;-1.90;99.90
29241;DHT22;16268;49.880;8.648;2022-12-18T17:12:03;-1.90;99.90
29241;DHT22;16268;49.880;8.648;2022-12-18T17:14:29;-1.80;99.90
29241;DHT22;16268;49.880;8.648;2022-12-18T17:16:54;-1.80;99.90
29241;DHT22;16268;49.880;8.648;2022-12-18T17:19:22;-1.90;99.90
29241;DHT22;16268;49.880;8.648;2022-12-18T17:21:49;-1.80;99.90
29241;DHT22;16268;49.880;8.648;2022-12-18T17:24:15;-1.80;99.90
29241;DHT22;16268;49.880;8.648;2022-12-18T17:26:40;-1.80;99.90
29241;DHT22;16268;49.880;8.648;2022-12-18T17:29:07;-1.70;99.90